Time;durP1;ratioP1;P1;durP2;ratioP2;P2;SDS_P1;SDS_P2;PMS_P1;PMS_P2;Temp;Humidity;BMP_temperature;BMP_pressure;BME280_temperature;BME280_humidity;BME280_pressure;Samples;Min_cycle;Max_cycle;Signal;HPM_P1;HPM_P2
2022/11/29 00:02:15;;;;;;;22.58;9.20;;;;;;;;;;5074102;28;20056;-75
2022/11/29 00:05:00;;;;;;;19.52;8.23;;;;;;;;;;5080755;28;20040;-74
2022/11/29 00:07:46;;;;;;;16.27;7.82;;;;;;;;;;5074233;28;20041;-76
2022/11/29 00:10:36;;;;;;;11.35;6.70;;;;;;;;;;5073769;28;20052;-77
2022/11/29 00:13:21;;;;;;;14.50;7.57;;;;;;;;;;5074597;28;20044;-77
2022/11/29 00:16:10;;;;;;;15.52;8.20;;;;;;;;;;5076407;28;20052;-76
2022/11/29 00:18:56;;;;;;;10.80;6.30;;;;;;;;;;5073991;28;20049;-74
2022/11/29 00:21:41;;;;;;;10.38;6.78;;;;;;;;;;5076344;28;20053;-77
2022/11/29 00:24:27;;;;;;;37.05;20.40;;;;;;;;;;5074014;28;20052;-77
2022/11/29 00:27:12;;;;;;;112.40;64.70;;;;;;;;;;5074175;28;20040;-77
2022/11/29 00:29:58;;;;;;;26.60;13.13;;;;;;;;;;5075040;28;20040;-76
2022/11/29 00:32:43;;;;;;;13.07;7.65;;;;;;;;;;5073469;28;20049;-75
2022/11/29 00:35:29;;;;;;;12.07;6.57;;;;;;;;;;5073776;28;20048;-77
2022/11/29 00:38:14;;;;;;;13.38;7.07;;;;;;;;;;5080289;28;20036;-77
2022/11/29 00:41:00;;;;;;;8.73;6.00;;;;;;;;;;5073673;28;20040;-75
2022/11/29 00:43:45;;;;;;;12.95;6.57;;;;;;;;;;5072955;28;20044;-77
2022/11/29 00:46:30;;;;;;;5.43;3.85;;;;;;;;;;5073621;28;20036;-77
2022/11/29 00:49:16;;;;;;;12.65;7.13;;;;;;;;;;5073699;28;20045;-76
2022/11/29 00:52:01;;;;;;;8.70;5.38;;;;;;;;;;5096898;28;20052;-76
2022/11/29 00:54:47;;;;;;;10.48;6.60;;;;;;;;;;5087221;28;20052;-76
2022/11/29 00:57:33;;;;;;;10.80;6.78;;;;;;;;;;5073575;28;20041;-75
2022/11/29 01:00:24;;;;;;;10.40;6.28;;;;;;;;;;5080214;28;20444;-75
2022/11/29 01:03:09;;;;;;;13.48;7.40;;;;;;;;;;5073320;28;20036;-75
2022/11/29 01:06:07;;;;;;;19.95;9.73;;;;;;;;;;5073637;28;20056;-76
2022/11/29 01:08:53;;;;;;;11.30;6.97;;;;;;;;;;5073943;28;20045;-76
2022/11/29 01:11:38;;;;;;;15.43;8.55;;;;;;;;;;5082386;28;20397;-76
2022/11/29 01:14:24;;;;;;;13.90;7.68;;;;;;;;;;5076307;28;20049;-76
2022/11/29 01:17:09;;;;;;;11.93;6.90;;;;;;;;;;5073777;28;20040;-77
2022/11/29 01:19:55;;;;;;;10.63;6.80;;;;;;;;;;5074988;28;20040;-77
2022/11/29 01:22:41;;;;;;;8.80;5.57;;;;;;;;;;5084798;28;20045;-76
2022/11/29 01:25:26;;;;;;;9.48;6.28;;;;;;;;;;5078104;28;20043;-76
2022/11/29 01:28:12;;;;;;;8.48;5.32;;;;;;;;;;5078246;28;20048;-77
2022/11/29 01:30:57;;;;;;;15.88;7.85;;;;;;;;;;5076896;28;20056;-78
2022/11/29 01:33:43;;;;;;;6.72;4.60;;;;;;;;;;5078223;28;20052;-75
2022/11/29 01:36:29;;;;;;;34.45;16.90;;;;;;;;;;5078648;28;20052;-76
2022/11/29 01:39:14;;;;;;;16.60;9.15;;;;;;;;;;5079168;28;20036;-77
2022/11/29 01:42:01;;;;;;;12.90;7.28;;;;;;;;;;5081072;28;20041;-76
2022/11/29 01:45:31;;;;;;;17.45;8.50;;;;;;;;;;5078281;28;20045;-75
2022/11/29 01:48:21;;;;;;;14.60;7.65;;;;;;;;;;5083372;28;20079;-76
2022/11/29 01:51:07;;;;;;;12.57;7.32;;;;;;;;;;5076717;28;20052;-77
2022/11/29 01:53:53;;;;;;;12.35;7.32;;;;;;;;;;5076859;28;20045;-76
2022/11/29 01:56:39;;;;;;;12.57;7.63;;;;;;;;;;5076532;28;20481;-77
2022/11/29 01:59:28;;;;;;;13.20;8.13;;;;;;;;;;5078101;28;20493;-76
2022/11/29 02:02:17;;;;;;;12.88;7.85;;;;;;;;;;5087590;28;20048;-76
2022/11/29 02:05:03;;;;;;;16.90;8.98;;;;;;;;;;5076208;28;20048;-76
2022/11/29 02:07:52;;;;;;;21.17;11.30;;;;;;;;;;5076579;28;20480;-77
2022/11/29 02:10:53;;;;;;;23.58;11.65;;;;;;;;;;5076305;28;20485;-76
2022/11/29 02:13:59;;;;;;;24.75;12.30;;;;;;;;;;5082995;28;20049;-76
2022/11/29 02:17:02;;;;;;;;;;;;;;;;;;5076749;28;20513;-76
2022/11/29 02:20:04;;;;;;;28.98;14.70;;;;;;;;;;5076012;28;19920;-75
2022/11/29 02:22:56;;;;;;;31.25;15.05;;;;;;;;;;5076602;28;20052;-76
2022/11/29 02:26:19;;;;;;;26.80;13.30;;;;;;;;;;5075970;28;20045;-76
2022/11/29 02:29:28;;;;;;;27.27;14.20;;;;;;;;;;5075598;28;20048;-75
2022/11/29 02:32:34;;;;;;;34.08;15.40;;;;;;;;;;5075309;28;20044;-75
2022/11/29 02:35:42;;;;;;;57.38;22.13;;;;;;;;;;5075714;28;20041;-76
2022/11/29 02:39:05;;;;;;;46.28;21.33;;;;;;;;;;5075594;28;20404;-75
2022/11/29 02:42:11;;;;;;;41.08;19.27;;;;;;;;;;5075591;28;20052;-76
2022/11/29 02:45:24;;;;;;;36.20;16.48;;;;;;;;;;5075680;28;20052;-75
2022/11/29 02:48:25;;;;;;;31.88;16.17;;;;;;;;;;5075682;28;20044;-76
2022/11/29 02:51:35;;;;;;;37.78;16.90;;;;;;;;;;5075380;28;20041;-75
2022/11/29 02:54:52;;;;;;;30.83;15.23;;;;;;;;;;5075437;28;20040;-75
2022/11/29 02:57:47;;;;;;;17.50;9.60;;;;;;;;;;5082084;28;20048;-74
2022/11/29 03:00:38;;;;;;;19.98;8.57;;;;;;;;;;5082417;28;20032;-77
2022/11/29 03:03:32;;;;;;;6.50;4.43;;;;;;;;;;5083636;28;20048;-77
2022/11/29 03:06:40;;;;;;;10.60;6.68;;;;;;;;;;5078621;28;20075;-77
2022/11/29 03:09:42;;;;;;;13.25;6.80;;;;;;;;;;5086427;28;20048;-76
2022/11/29 03:12:39;;;;;;;9.30;5.68;;;;;;;;;;5087271;28;20040;-76
2022/11/29 03:15:32;;;;;;;8.80;5.72;;;;;;;;;;5075200;28;20037;-77
2022/11/29 03:18:56;;;;;;;9.25;6.15;;;;;;;;;;5080565;28;20484;-77
2022/11/29 03:22:13;;;;;;;9.10;6.25;;;;;;;;;;5074948;28;20044;-76
2022/11/29 03:25:21;;;;;;;11.05;6.10;;;;;;;;;;5069444;28;20044;-76
2022/11/29 03:28:15;;;;;;;15.65;8.82;;;;;;;;;;5074902;28;20492;-77
2022/11/29 03:31:10;;;;;;;19.10;9.75;;;;;;;;;;5075057;28;20049;-78
2022/11/29 03:33:59;;;;;;;12.65;6.38;;;;;;;;;;5074956;28;20036;-77
2022/11/29 03:37:01;;;;;;;13.43;7.90;;;;;;;;;;5074714;28;20381;-77
2022/11/29 03:40:03;;;;;;;15.38;8.13;;;;;;;;;;5074546;28;20052;-76
2022/11/29 03:42:55;;;;;;;14.52;9.10;;;;;;;;;;5076976;28;20048;-77
2022/11/29 03:45:52;;;;;;;15.88;8.93;;;;;;;;;;5074924;28;20490;-76
2022/11/29 03:49:02;;;;;;;14.82;6.63;;;;;;;;;;5074306;28;20040;-75
2022/11/29 03:51:55;;;;;;;12.95;7.15;;;;;;;;;;5074387;28;20053;-76
2022/11/29 03:54:59;;;;;;;13.95;7.68;;;;;;;;;;5073591;28;20385;-76
2022/11/29 03:57:56;;;;;;;12.77;7.65;;;;;;;;;;5074080;28;20048;-76
2022/11/29 04:01:00;;;;;;;15.13;7.38;;;;;;;;;;5074121;28;20037;-76
2022/11/29 04:04:13;;;;;;;15.00;7.30;;;;;;;;;;5073577;28;20040;-76
2022/11/29 04:07:01;;;;;;;17.20;8.35;;;;;;;;;;5071951;28;20452;-76
2022/11/29 04:10:05;;;;;;;18.73;9.18;;;;;;;;;;5071953;28;20473;-76
2022/11/29 04:13:12;;;;;;;20.60;11.75;;;;;;;;;;5078381;28;20052;-76
2022/11/29 04:16:26;;;;;;;24.88;12.60;;;;;;;;;;5071706;28;20052;-76
2022/11/29 04:19:20;;;;;;;21.15;10.40;;;;;;;;;;5079350;28;20056;-76
2022/11/29 04:22:44;;;;;;;22.67;11.77;;;;;;;;;;5073645;28;20044;-75
2022/11/29 04:25:47;;;;;;;24.90;11.27;;;;;;;;;;5073756;28;20049;-75
2022/11/29 04:29:08;;;;;;;18.83;10.05;;;;;;;;;;5073896;28;20045;-75
2022/11/29 04:32:12;;;;;;;18.95;10.55;;;;;;;;;;5073506;28;20045;-76
2022/11/29 04:35:00;;;;;;;21.17;10.57;;;;;;;;;;5073594;28;20048;-77
2022/11/29 04:38:08;;;;;;;18.08;10.85;;;;;;;;;;5073737;28;20049;-75
2022/11/29 04:41:41;;;;;;;22.67;10.50;;;;;;;;;;5073592;28;20045;-75
2022/11/29 04:44:42;;;;;;;19.77;10.70;;;;;;;;;;4985188;28;20044;-78
2022/11/29 04:48:01;;;;;;;17.92;10.05;;;;;;;;;;5073642;28;20045;-77
2022/11/29 04:51:09;;;;;;;22.10;10.45;;;;;;;;;;5080397;28;20037;-75
2022/11/29 04:54:18;;;;;;;16.65;8.43;;;;;;;;;;5073459;28;20049;-76
2022/11/29 04:57:16;;;;;;;14.23;8.13;;;;;;;;;;5075892;28;20045;-76
2022/11/29 05:00:08;;;;;;;16.38;9.27;;;;;;;;;;5077458;28;20036;-75
2022/11/29 05:02:58;;;;;;;20.70;10.55;;;;;;;;;;5084557;28;20048;-75
2022/11/29 05:05:53;;;;;;;34.30;14.80;;;;;;;;;;5077509;28;20045;-76
2022/11/29 05:09:07;;;;;;;25.73;12.77;;;;;;;;;;5077832;28;20384;-75
2022/11/29 05:12:02;;;;;;;29.67;15.27;;;;;;;;;;5077735;28;20045;-75
2022/11/29 05:15:26;;;;;;;26.40;13.60;;;;;;;;;;5077874;28;20045;-75
2022/11/29 05:18:23;;;;;;;23.33;12.25;;;;;;;;;;5062118;28;20060;-76
2022/11/29 05:21:10;;;;;;;17.83;10.07;;;;;;;;;;5088941;28;20048;-75
2022/11/29 05:24:10;;;;;;;15.88;8.98;;;;;;;;;;5077157;28;20044;-74
2022/11/29 05:27:43;;;;;;;16.40;8.25;;;;;;;;;;5098889;28;20048;-76
2022/11/29 05:31:05;;;;;;;14.20;8.50;;;;;;;;;;5014561;28;20052;-75
2022/11/29 05:34:29;;;;;;;15.82;7.60;;;;;;;;;;5039091;28;20045;-76
2022/11/29 05:37:36;;;;;;;9.90;6.00;;;;;;;;;;5040028;28;20041;-77
2022/11/29 05:41:10;;;;;;;16.38;8.60;;;;;;;;;;5076561;28;20048;-76
2022/11/29 05:44:04;;;;;;;11.95;6.93;;;;;;;;;;5075948;28;20044;-76
2022/11/29 05:47:01;;;;;;;17.00;8.77;;;;;;;;;;5076808;28;20040;-76
2022/11/29 05:50:28;;;;;;;20.27;8.07;;;;;;;;;;5076541;28;20044;-76
2022/11/29 05:53:35;;;;;;;22.98;10.27;;;;;;;;;;5041930;28;20037;-75
2022/11/29 05:56:24;;;;;;;14.13;8.20;;;;;;;;;;5076233;28;20489;-77
2022/11/29 05:59:18;;;;;;;17.92;9.23;;;;;;;;;;5076280;28;20037;-77
2022/11/29 06:02:29;;;;;;;18.65;9.48;;;;;;;;;;5076328;28;20041;-76
2022/11/29 06:05:38;;;;;;;16.25;7.10;;;;;;;;;;5082513;28;20053;-77
2022/11/29 06:08:41;;;;;;;11.13;6.30;;;;;;;;;;5076217;28;20493;-77
2022/11/29 06:11:38;;;;;;;14.40;8.77;;;;;;;;;;5076287;28;20044;-77
2022/11/29 06:15:00;;;;;;;13.85;8.20;;;;;;;;;;5076383;28;20049;-77
2022/11/29 06:18:13;;;;;;;12.35;8.30;;;;;;;;;;5005971;28;20405;-77
2022/11/29 06:21:12;;;;;;;14.52;6.22;;;;;;;;;;5082725;28;20044;-77
2022/11/29 06:24:24;;;;;;;14.70;8.35;;;;;;;;;;5075548;28;20036;-75
2022/11/29 06:27:18;;;;;;;15.23;8.35;;;;;;;;;;5059107;28;20044;-76
2022/11/29 06:30:11;;;;;;;18.40;9.48;;;;;;;;;;5074713;28;20052;-75
2022/11/29 06:33:08;;;;;;;17.00;9.30;;;;;;;;;;5074641;28;20041;-76
2022/11/29 06:36:09;;;;;;;16.35;9.07;;;;;;;;;;5058590;28;20056;-76
2022/11/29 06:38:54;;;;;;;11.52;6.57;;;;;;;;;;5074481;28;20394;-76
2022/11/29 06:41:40;;;;;;;7.85;5.55;;;;;;;;;;5075392;28;20041;-75
2022/11/29 06:44:26;;;;;;;12.48;7.18;;;;;;;;;;5075573;28;20044;-76
2022/11/29 06:47:29;;;;;;;17.15;8.38;;;;;;;;;;5075815;28;20048;-75
2022/11/29 06:50:39;;;;;;;13.18;7.68;;;;;;;;;;5075613;28;20037;-75
2022/11/29 06:53:39;;;;;;;9.82;6.40;;;;;;;;;;5066825;28;20040;-75
2022/11/29 06:57:18;;;;;;;20.45;10.65;;;;;;;;;;5075330;28;20036;-75
2022/11/29 07:00:08;;;;;;;21.83;11.73;;;;;;;;;;4999798;28;20048;-75
2022/11/29 07:03:12;;;;;;;17.20;9.07;;;;;;;;;;5075031;28;20048;-75
2022/11/29 07:06:10;;;;;;;11.25;6.72;;;;;;;;;;5075817;28;20044;-76
2022/11/29 07:09:00;;;;;;;21.25;12.18;;;;;;;;;;5081719;28;20048;-76
2022/11/29 07:11:46;;;;;;;14.95;7.82;;;;;;;;;;5081840;28;20056;-76
2022/11/29 07:14:31;;;;;;;25.90;11.77;;;;;;;;;;5075589;28;20457;-76
2022/11/29 07:17:38;;;;;;;13.35;7.45;;;;;;;;;;5075189;28;20481;-76
2022/11/29 07:20:35;;;;;;;17.67;9.90;;;;;;;;;;5074127;28;20044;-76
2022/11/29 07:23:37;;;;;;;15.95;9.27;;;;;;;;;;5075928;28;20056;-76
2022/11/29 07:26:35;;;;;;;14.68;8.38;;;;;;;;;;5074649;28;20048;-76
2022/11/29 07:29:36;;;;;;;16.85;9.52;;;;;;;;;;5074589;28;20037;-76
2022/11/29 07:32:42;;;;;;;9.20;5.97;;;;;;;;;;5075069;28;20040;-76
2022/11/29 07:35:37;;;;;;;16.73;7.63;;;;;;;;;;5075171;28;20044;-76
2022/11/29 07:38:51;;;;;;;14.43;8.75;;;;;;;;;;5074932;28;20049;-77
2022/11/29 07:41:59;;;;;;;11.40;7.72;;;;;;;;;;5099794;28;20052;-76
2022/11/29 07:45:00;;;;;;;12.88;7.97;;;;;;;;;;5074865;28;20044;-75
2022/11/29 07:47:46;;;;;;;13.38;7.88;;;;;;;;;;5074271;28;20044;-77
2022/11/29 07:50:31;;;;;;;13.98;7.82;;;;;;;;;;5074373;28;20044;-77
2022/11/29 07:53:20;;;;;;;11.07;6.22;;;;;;;;;;5074101;28;20036;-76
2022/11/29 07:56:06;;;;;;;8.02;5.00;;;;;;;;;;5074114;28;20044;-76
2022/11/29 07:58:51;;;;;;;11.30;6.13;;;;;;;;;;5084265;28;20041;-76
2022/11/29 08:01:38;;;;;;;11.63;6.53;;;;;;;;;;5080826;28;20044;-75
2022/11/29 08:04:24;;;;;;;12.35;7.03;;;;;;;;;;5074541;28;20037;-76
2022/11/29 08:07:09;;;;;;;10.68;6.47;;;;;;;;;;5074102;28;20048;-75
2022/11/29 08:09:55;;;;;;;16.50;9.60;;;;;;;;;;5074031;28;20048;-77
2022/11/29 08:12:51;;;;;;;13.57;6.70;;;;;;;;;;5073811;28;20041;-75
2022/11/29 08:15:43;;;;;;;10.07;6.43;;;;;;;;;;5073631;28;20036;-75
2022/11/29 08:18:29;;;;;;;18.25;9.32;;;;;;;;;;5074056;28;20052;-74
2022/11/29 08:21:16;;;;;;;15.38;8.20;;;;;;;;;;5073644;28;20385;-76
2022/11/29 08:24:01;;;;;;;11.75;6.50;;;;;;;;;;5073658;28;20402;-78
2022/11/29 08:26:47;;;;;;;15.48;8.95;;;;;;;;;;5073797;28;20044;-76
2022/11/29 08:29:33;;;;;;;16.35;9.48;;;;;;;;;;5080266;28;20048;-75
2022/11/29 08:32:18;;;;;;;11.80;7.55;;;;;;;;;;5073557;28;20045;-78
2022/11/29 08:35:04;;;;;;;12.70;7.43;;;;;;;;;;5073926;28;20486;-77
2022/11/29 08:37:50;;;;;;;12.38;8.02;;;;;;;;;;5072014;28;20386;-75
2022/11/29 08:40:35;;;;;;;9.27;6.30;;;;;;;;;;5053533;28;20037;-77
2022/11/29 08:43:22;;;;;;;11.73;6.93;;;;;;;;;;5053373;28;20059;-76
2022/11/29 08:46:07;;;;;;;15.05;8.45;;;;;;;;;;5054347;28;20398;-75
2022/11/29 08:48:53;;;;;;;11.43;7.45;;;;;;;;;;5054098;28;20045;-77
2022/11/29 08:51:38;;;;;;;12.90;6.53;;;;;;;;;;5054275;28;20045;-77
2022/11/29 08:54:24;;;;;;;12.40;6.63;;;;;;;;;;5058383;28;20045;-77
2022/11/29 08:57:09;;;;;;;12.25;7.05;;;;;;;;;;5053422;28;20049;-78
2022/11/29 08:59:55;;;;;;;14.35;7.85;;;;;;;;;;5061268;28;20045;-78
2022/11/29 09:02:41;;;;;;;15.30;8.38;;;;;;;;;;5052922;28;20053;-75
2022/11/29 09:05:26;;;;;;;15.98;9.30;;;;;;;;;;5059614;28;20049;-78
2022/11/29 09:08:12;;;;;;;8.38;5.63;;;;;;;;;;5053375;28;20040;-76
2022/11/29 09:10:57;;;;;;;14.57;8.80;;;;;;;;;;5053330;28;20037;-78
2022/11/29 09:13:46;;;;;;;20.15;10.65;;;;;;;;;;5060232;28;20041;-78
2022/11/29 09:16:34;;;;;;;21.27;11.90;;;;;;;;;;5072367;28;20053;-77
2022/11/29 09:19:20;;;;;;;15.18;8.52;;;;;;;;;;5079142;28;20037;-78
2022/11/29 09:22:05;;;;;;;10.45;6.60;;;;;;;;;;5053385;28;20045;-79
2022/11/29 09:24:50;;;;;;;9.35;6.38;;;;;;;;;;5053113;28;20056;-77
2022/11/29 09:27:36;;;;;;;12.43;7.32;;;;;;;;;;5059878;28;20490;-76
2022/11/29 09:30:21;;;;;;;14.93;9.60;;;;;;;;;;5059843;28;20041;-76
2022/11/29 09:33:07;;;;;;;14.93;8.80;;;;;;;;;;5063837;28;20402;-75
2022/11/29 09:35:56;;;;;;;16.85;8.70;;;;;;;;;;5076299;28;20045;-77
2022/11/29 09:38:42;;;;;;;11.80;7.57;;;;;;;;;;5071048;28;20041;-79
2022/11/29 09:41:40;;;;;;;12.25;7.80;;;;;;;;;;5074538;28;20045;-78
2022/11/29 09:44:42;;;;;;;13.27;7.68;;;;;;;;;;5074583;28;20037;-80
2022/11/29 09:47:52;;;;;;;10.25;6.50;;;;;;;;;;5074651;28;20514;-79
2022/11/29 09:50:56;;;;;;;15.25;5.40;;;;;;;;;;5076174;28;20044;-79
2022/11/29 09:53:47;;;;;;;17.35;9.55;;;;;;;;;;5073370;28;20037;-78
2022/11/29 09:56:42;;;;;;;18.52;10.63;;;;;;;;;;5075973;28;20045;-78
2022/11/29 09:59:34;;;;;;;14.05;8.77;;;;;;;;;;5079728;28;20045;-77
2022/11/29 10:02:19;;;;;;;13.02;7.75;;;;;;;;;;5061926;28;20048;-77
2022/11/29 10:05:15;;;;;;;11.55;6.68;;;;;;;;;;5064210;28;20041;-75
2022/11/29 10:08:53;;;;;;;11.02;7.13;;;;;;;;;;5056625;28;20037;-76
2022/11/29 10:11:59;;;;;;;11.55;6.63;;;;;;;;;;5030991;28;20045;-76
2022/11/29 10:14:51;;;;;;;15.15;7.78;;;;;;;;;;5056078;28;20044;-76
2022/11/29 10:17:43;;;;;;;14.00;8.18;;;;;;;;;;5056410;28;20040;-76
2022/11/29 10:20:33;;;;;;;15.20;7.85;;;;;;;;;;5056413;28;20107;-77
2022/11/29 10:23:23;;;;;;;11.10;7.10;;;;;;;;;;5062798;28;20045;-75
2022/11/29 10:26:11;;;;;;;10.15;5.75;;;;;;;;;;5056215;28;20505;-77
2022/11/29 10:28:57;;;;;;;11.18;6.45;;;;;;;;;;5060189;28;20040;-79
2022/11/29 10:31:48;;;;;;;14.05;7.57;;;;;;;;;;5075405;28;20045;-79
2022/11/29 10:34:33;;;;;;;10.35;6.57;;;;;;;;;;5073747;28;20041;-76
2022/11/29 10:37:20;;;;;;;14.32;8.02;;;;;;;;;;5055844;28;20482;-78
2022/11/29 10:40:14;;;;;;;15.77;9.77;;;;;;;;;;5062472;28;20045;-77
2022/11/29 10:43:00;;;;;;;13.73;8.55;;;;;;;;;;5058343;28;20053;-77
2022/11/29 10:45:54;;;;;;;15.32;9.30;;;;;;;;;;5055741;28;20421;-78
2022/11/29 10:48:40;;;;;;;11.65;6.70;;;;;;;;;;5055548;28;20057;-77
2022/11/29 10:51:26;;;;;;;15.25;6.80;;;;;;;;;;5056249;28;20045;-76
2022/11/29 10:54:17;;;;;;;22.90;10.48;;;;;;;;;;5054847;28;20070;-76
2022/11/29 10:57:13;;;;;;;12.73;6.68;;;;;;;;;;5062278;28;20052;-77
2022/11/29 11:00:05;;;;;;;16.73;10.15;;;;;;;;;;5062216;28;20041;-77
2022/11/29 11:02:50;;;;;;;11.20;5.85;;;;;;;;;;5056294;28;20045;-77
2022/11/29 11:05:36;;;;;;;10.77;5.85;;;;;;;;;;5055286;28;20045;-77
2022/11/29 11:08:24;;;;;;;12.55;8.20;;;;;;;;;;5054966;28;20049;-76
2022/11/29 11:11:11;;;;;;;8.90;5.57;;;;;;;;;;5062390;28;20052;-79
2022/11/29 11:14:05;;;;;;;12.63;7.10;;;;;;;;;;5061970;28;20136;-77
2022/11/29 11:16:51;;;;;;;15.70;9.25;;;;;;;;;;5061886;28;20045;-76
2022/11/29 11:19:36;;;;;;;16.10;8.35;;;;;;;;;;5055844;28;20075;-76
2022/11/29 11:22:23;;;;;;;14.70;6.45;;;;;;;;;;5054843;28;20048;-76
2022/11/29 11:25:38;;;;;;;11.20;5.95;;;;;;;;;;5054758;28;20049;-77
2022/11/29 11:28:35;;;;;;;12.80;7.65;;;;;;;;;;5061601;28;20045;-76
2022/11/29 11:31:33;;;;;;;16.67;9.65;;;;;;;;;;5063207;28;20045;-78
2022/11/29 11:34:34;;;;;;;19.65;10.55;;;;;;;;;;5061491;28;20041;-77
2022/11/29 11:37:26;;;;;;;17.23;9.80;;;;;;;;;;5061576;28;20045;-78
2022/11/29 11:40:27;;;;;;;10.95;6.10;;;;;;;;;;5055419;28;20389;-77
2022/11/29 11:43:20;;;;;;;14.90;9.05;;;;;;;;;;5039573;28;20048;-77
2022/11/29 11:46:05;;;;;;;11.05;6.82;;;;;;;;;;5061449;28;20041;-77
2022/11/29 11:48:50;;;;;;;7.57;5.35;;;;;;;;;;5061581;28;20045;-75
2022/11/29 11:51:39;;;;;;;8.30;5.43;;;;;;;;;;5054751;28;20037;-77
2022/11/29 11:54:26;;;;;;;17.08;6.60;;;;;;;;;;5054488;28;20394;-77
2022/11/29 11:57:17;;;;;;;9.55;6.05;;;;;;;;;;5055048;28;20041;-78
2022/11/29 12:00:03;;;;;;;11.13;6.22;;;;;;;;;;5054583;28;20045;-78
2022/11/29 12:02:58;;;;;;;12.90;7.97;;;;;;;;;;5053982;28;20041;-75
2022/11/29 12:05:47;;;;;;;12.40;7.55;;;;;;;;;;5054176;28;20041;-77
2022/11/29 12:08:35;;;;;;;10.05;6.32;;;;;;;;;;5055282;28;20394;-78
2022/11/29 12:11:23;;;;;;;10.45;5.82;;;;;;;;;;5072125;28;20048;-77
2022/11/29 12:14:19;;;;;;;10.40;6.85;;;;;;;;;;5055223;28;20053;-75
2022/11/29 12:17:40;;;;;;;11.70;7.72;;;;;;;;;;5060769;28;20041;-76
2022/11/29 12:20:35;;;;;;;11.07;7.53;;;;;;;;;;5053976;28;20044;-76
2022/11/29 12:23:32;;;;;;;13.52;8.80;;;;;;;;;;5060976;28;20048;-75
2022/11/29 12:26:25;;;;;;;15.15;8.35;;;;;;;;;;5061040;28;20045;-77
2022/11/29 12:29:14;;;;;;;17.42;8.23;;;;;;;;;;5060732;28;20045;-79
2022/11/29 12:32:30;;;;;;;14.55;8.18;;;;;;;;;;5054732;28;20049;-79
2022/11/29 12:35:43;;;;;;;23.80;12.55;;;;;;;;;;5060351;28;20048;-78
2022/11/29 12:39:06;;;;;;;17.35;8.30;;;;;;;;;;5060507;28;20049;-77
2022/11/29 12:42:05;;;;;;;12.50;7.18;;;;;;;;;;5053441;28;20045;-78
2022/11/29 12:45:16;;;;;;;13.45;7.70;;;;;;;;;;5059958;28;20045;-77
2022/11/29 12:48:04;;;;;;;11.95;7.00;;;;;;;;;;5053450;28;20045;-76
2022/11/29 12:51:20;;;;;;;12.32;7.22;;;;;;;;;;5053170;28;20041;-77
2022/11/29 12:54:26;;;;;;;10.40;6.50;;;;;;;;;;5059865;28;20033;-77
2022/11/29 12:57:41;;;;;;;11.38;6.78;;;;;;;;;;5060229;28;20045;-79
2022/11/29 13:00:34;;;;;;;11.43;7.78;;;;;;;;;;5060134;28;20045;-79
2022/11/29 13:03:29;;;;;;;11.13;6.63;;;;;;;;;;5060266;28;20056;-79
2022/11/29 13:06:55;;;;;;;10.50;6.70;;;;;;;;;;5060104;28;20041;-76
2022/11/29 13:10:11;;;;;;;6.32;4.70;;;;;;;;;;5053330;28;20429;-79
2022/11/29 13:13:10;;;;;;;15.10;7.72;;;;;;;;;;5053383;28;20048;-79
2022/11/29 13:16:14;;;;;;;14.50;7.40;;;;;;;;;;5053400;28;20033;-79
2022/11/29 13:19:23;;;;;;;10.00;6.30;;;;;;;;;;5057968;28;20045;-76
2022/11/29 13:22:08;;;;;;;11.75;5.70;;;;;;;;;;5063834;28;20045;-75
2022/11/29 13:25:00;;;;;;;11.85;6.63;;;;;;;;;;5057402;28;20057;-76
2022/11/29 13:28:31;;;;;;;11.93;7.15;;;;;;;;;;5056933;28;20041;-75
2022/11/29 13:31:19;;;;;;;15.82;9.20;;;;;;;;;;5024940;28;20048;-77
2022/11/29 13:34:12;;;;;;;13.02;6.93;;;;;;;;;;5056895;28;20040;-79
2022/11/29 13:37:30;;;;;;;21.27;12.98;;;;;;;;;;5075674;28;20025;-80
2022/11/29 13:40:30;;;;;;;76.45;39.58;;;;;;;;;;5073234;28;20044;-79
2022/11/29 13:43:40;;;;;;;17.92;13.60;;;;;;;;;;5073637;28;20045;-80
2022/11/29 13:46:35;;;;;;;16.02;10.77;;;;;;;;;;5068977;28;20497;-77
2022/11/29 13:49:55;;;;;;;21.98;12.60;;;;;;;;;;5063812;28;20490;-83
2022/11/29 13:52:46;;;;;;;11.50;7.35;;;;;;;;;;5048686;28;20041;-77
2022/11/29 13:55:31;;;;;;;10.63;6.97;;;;;;;;;;5063053;28;20049;-76
2022/11/29 13:58:17;;;;;;;14.88;8.35;;;;;;;;;;5057000;28;20048;-78
2022/11/29 14:01:07;;;;;;;10.98;6.47;;;;;;;;;;5056608;28;20045;-79
2022/11/29 14:04:04;;;;;;;13.35;7.65;;;;;;;;;;5063388;28;20049;-75
2022/11/29 14:07:01;;;;;;;14.35;9.40;;;;;;;;;;5063362;28;20045;-79
2022/11/29 14:10:02;;;;;;;12.75;8.40;;;;;;;;;;5057243;28;20049;-78
2022/11/29 14:12:54;;;;;;;15.00;8.82;;;;;;;;;;5058285;28;20037;-77
2022/11/29 14:15:40;;;;;;;16.17;9.77;;;;;;;;;;5056491;28;20048;-78
2022/11/29 14:18:48;;;;;;;17.40;10.55;;;;;;;;;;5063222;28;20040;-78
2022/11/29 14:22:02;;;;;;;17.88;11.23;;;;;;;;;;5066157;28;20037;-79
2022/11/29 14:24:59;;;;;;;19.80;11.27;;;;;;;;;;5068154;28;20049;-80
2022/11/29 14:27:54;;;;;;;22.63;11.63;;;;;;;;;;5042309;28;20045;-78
2022/11/29 14:30:42;;;;;;;20.92;13.30;;;;;;;;;;5058816;28;20037;-78
2022/11/29 14:33:51;;;;;;;12.15;6.45;;;;;;;;;;5062028;28;20489;-78
2022/11/29 14:37:02;;;;;;;19.92;10.65;;;;;;;;;;5065227;28;20045;-78
2022/11/29 14:39:53;;;;;;;21.75;13.02;;;;;;;;;;5063060;28;20045;-74
2022/11/29 14:42:47;;;;;;;11.45;7.13;;;;;;;;;;5059127;28;20049;-80
2022/11/29 14:45:34;;;;;;;40.40;25.60;;;;;;;;;;5063614;28;20056;-78
2022/11/29 14:48:26;;;;;;;15.57;8.25;;;;;;;;;;5064686;28;20048;-76
2022/11/29 14:51:17;;;;;;;12.05;8.30;;;;;;;;;;5055500;28;20049;-78
2022/11/29 14:54:18;;;;;;;12.32;6.80;;;;;;;;;;5055438;28;20037;-77
2022/11/29 14:57:51;;;;;;;10.23;6.82;;;;;;;;;;5055262;28;20045;-77
2022/11/29 15:00:49;;;;;;;31.67;16.00;;;;;;;;;;5074850;28;20045;-78
2022/11/29 15:03:45;;;;;;;26.50;14.70;;;;;;;;;;5067995;28;20037;-78
2022/11/29 15:06:33;;;;;;;24.85;16.40;;;;;;;;;;5055180;28;20049;-78
2022/11/29 15:09:22;;;;;;;29.73;17.80;;;;;;;;;;5062924;28;20037;-77
2022/11/29 15:12:16;;;;;;;34.25;21.23;;;;;;;;;;5055590;28;20049;-78
2022/11/29 15:15:20;;;;;;;18.42;12.02;;;;;;;;;;5055642;28;20048;-80
2022/11/29 15:18:52;;;;;;;26.77;14.57;;;;;;;;;;5055732;28;20061;-81
2022/11/29 15:21:53;;;;;;;28.30;15.45;;;;;;;;;;5056522;28;20036;-82
2022/11/29 15:25:09;;;;;;;20.73;11.98;;;;;;;;;;5041874;28;20044;-81
2022/11/29 15:27:56;;;;;;;15.85;10.50;;;;;;;;;;5062979;28;20045;-80
2022/11/29 15:30:42;;;;;;;20.30;11.60;;;;;;;;;;5065741;28;20049;-81
2022/11/29 15:33:29;;;;;;;19.48;12.05;;;;;;;;;;5039902;28;20044;-81
2022/11/29 15:36:20;;;;;;;18.45;10.05;;;;;;;;;;5056000;28;20390;-79
2022/11/29 15:39:33;;;;;;;17.67;12.10;;;;;;;;;;5053842;28;20041;-80
2022/11/29 15:42:18;;;;;;;15.85;10.00;;;;;;;;;;5054226;28;20052;-83
2022/11/29 15:45:27;;;;;;;26.85;14.43;;;;;;;;;;5039728;28;20394;-79
2022/11/29 15:48:20;;;;;;;14.80;8.45;;;;;;;;;;5047032;28;20470;-80
2022/11/29 15:51:15;;;;;;;15.02;9.18;;;;;;;;;;5059343;28;20037;-79
2022/11/29 15:54:22;;;;;;;15.77;9.47;;;;;;;;;;5054858;28;20506;-81
2022/11/29 15:57:45;;;;;;;19.80;10.07;;;;;;;;;;5056788;28;20274;-80
2022/11/29 16:00:32;;;;;;;16.15;10.10;;;;;;;;;;5054343;28;20474;-80
2022/11/29 16:03:24;;;;;;;20.05;11.32;;;;;;;;;;5055847;28;20045;-80
2022/11/29 16:06:48;;;;;;;13.85;8.30;;;;;;;;;;5053921;28;20045;-83
2022/11/29 16:09:46;;;;;;;10.77;6.95;;;;;;;;;;5052122;28;20045;-81
2022/11/29 16:12:32;;;;;;;22.40;13.73;;;;;;;;;;5055485;28;20036;-79
2022/11/29 16:15:29;;;;;;;13.25;7.72;;;;;;;;;;5061030;28;20123;-79
2022/11/29 16:18:23;;;;;;;13.82;7.85;;;;;;;;;;5057146;28;20049;-80
2022/11/29 16:21:25;;;;;;;11.95;7.22;;;;;;;;;;5025593;28;20041;-81
2022/11/29 16:24:18;;;;;;;13.23;8.23;;;;;;;;;;5053796;28;20049;-79
2022/11/29 16:27:04;;;;;;;11.95;7.45;;;;;;;;;;5053889;28;20045;-80
2022/11/29 16:29:53;;;;;;;13.65;7.35;;;;;;;;;;5053358;28;20514;-80
2022/11/29 16:32:53;;;;;;;13.82;8.77;;;;;;;;;;5058565;28;20045;-80
2022/11/29 16:35:39;;;;;;;20.88;10.75;;;;;;;;;;5040572;28;20049;-79
2022/11/29 16:38:25;;;;;;;17.80;10.77;;;;;;;;;;5073569;28;20393;-78
2022/11/29 16:41:30;;;;;;;15.57;9.07;;;;;;;;;;5067962;28;20406;-80
2022/11/29 16:44:49;;;;;;;11.63;8.07;;;;;;;;;;5052721;28;20045;-81
2022/11/29 16:47:51;;;;;;;16.73;10.32;;;;;;;;;;5012341;28;20393;-80
2022/11/29 16:50:36;;;;;;;17.70;11.82;;;;;;;;;;5053128;28;20044;-80
2022/11/29 16:53:34;;;;;;;20.65;14.05;;;;;;;;;;5053873;28;20041;-81
2022/11/29 16:56:23;;;;;;;20.83;13.43;;;;;;;;;;5053547;28;20045;-82
2022/11/29 16:59:09;;;;;;;18.27;11.10;;;;;;;;;;5053178;28;20489;-81
2022/11/29 17:01:55;;;;;;;23.98;14.23;;;;;;;;;;5054262;28;20041;-80
2022/11/29 17:04:41;;;;;;;16.88;10.75;;;;;;;;;;5060260;28;20409;-79
2022/11/29 17:07:30;;;;;;;21.65;9.73;;;;;;;;;;5053202;28;20041;-79
2022/11/29 17:10:21;;;;;;;19.35;12.73;;;;;;;;;;5053094;28;20147;-79
2022/11/29 17:13:12;;;;;;;12.82;8.82;;;;;;;;;;5055133;28;20495;-82
2022/11/29 17:15:57;;;;;;;13.23;8.68;;;;;;;;;;5058624;28;20041;-81
2022/11/29 17:18:44;;;;;;;14.20;8.93;;;;;;;;;;5055507;28;20045;-81
2022/11/29 17:21:30;;;;;;;17.10;10.73;;;;;;;;;;5047151;28;20414;-83